sensor_id;sensor_type;location;lat;lon;timestamp;pressure;altitude;pressure_sealevel;temperature
13497;BMP180;6820;49.374;8.452;2023-10-13T00:00:30;100532.66;;;24.67
13497;BMP180;6820;49.374;8.452;2023-10-13T00:04:37;100523.19;;;24.70
13497;BMP180;6820;49.374;8.452;2023-10-13T00:08:39;100538.75;;;24.69
13497;BMP180;6820;49.374;8.452;2023-10-13T00:12:41;100530.94;;;24.67
13497;BMP180;6820;49.374;8.452;2023-10-13T00:16:51;100534.41;;;24.66
13497;BMP180;6820;49.374;8.452;2023-10-13T00:21:22;100536.13;;;24.70
13497;BMP180;6820;49.374;8.452;2023-10-13T00:25:33;100521.50;;;24.74
13497;BMP180;6820;49.374;8.452;2023-10-13T00:29:44;100530.16;;;24.77
13497;BMP180;6820;49.374;8.452;2023-10-13T00:33:48;100529.28;;;24.78
13497;BMP180;6820;49.374;8.452;2023-10-13T00:37:51;100530.16;;;24.77
13497;BMP180;6820;49.374;8.452;2023-10-13T00:41:55;100525.84;;;24.79
13497;BMP180;6820;49.374;8.452;2023-10-13T00:46:01;100518.91;;;24.75
13497;BMP180;6820;49.374;8.452;2023-10-13T00:50:07;100513.72;;;24.75
13497;BMP180;6820;49.374;8.452;2023-10-13T00:54:17;100503.34;;;24.78
13497;BMP180;6820;49.374;8.452;2023-10-13T00:58:20;100505.13;;;24.79
13497;BMP180;6820;49.374;8.452;2023-10-13T01:02:23;100501.63;;;24.78
13497;BMP180;6820;49.374;8.452;2023-10-13T01:06:38;100494.69;;;24.73
13497;BMP180;6820;49.374;8.452;2023-10-13T01:10:41;100486.91;;;24.69
13497;BMP180;6820;49.374;8.452;2023-10-13T01:14:43;100491.19;;;24.68
13497;BMP180;6820;49.374;8.452;2023-10-13T01:18:45;100481.63;;;24.60
13497;BMP180;6820;49.374;8.452;2023-10-13T01:22:51;100480.72;;;24.50
13497;BMP180;6820;49.374;8.452;2023-10-13T01:26:58;100483.22;;;24.40
13497;BMP180;6820;49.374;8.452;2023-10-13T01:31:09;100472.81;;;24.34
13497;BMP180;6820;49.374;8.452;2023-10-13T01:35:11;100473.63;;;24.30
13497;BMP180;6820;49.374;8.452;2023-10-13T01:39:12;100478.81;;;24.26
13497;BMP180;6820;49.374;8.452;2023-10-13T01:43:18;100474.34;;;24.17
13497;BMP180;6820;49.374;8.452;2023-10-13T01:47:19;100470.06;;;24.15
13497;BMP180;6820;49.374;8.452;2023-10-13T01:51:24;100455.38;;;24.15
13497;BMP180;6820;49.374;8.452;2023-10-13T01:55:25;100454.47;;;24.12
13497;BMP180;6820;49.374;8.452;2023-10-13T01:59:27;100457.91;;;24.08
13497;BMP180;6820;49.374;8.452;2023-10-13T02:03:29;100453.59;;;24.07
13497;BMP180;6820;49.374;8.452;2023-10-13T02:07:31;100457.03;;;24.08
13497;BMP180;6820;49.374;8.452;2023-10-13T02:11:38;100449.22;;;24.03
13497;BMP180;6820;49.374;8.452;2023-10-13T02:15:40;100451.75;;;23.97
13497;BMP180;6820;49.374;8.452;2023-10-13T02:19:44;100443.09;;;23.94
13497;BMP180;6820;49.374;8.452;2023-10-13T02:23:47;100447.38;;;23.93
13497;BMP180;6820;49.374;8.452;2023-10-13T02:28:02;100443.91;;;23.90
13497;BMP180;6820;49.374;8.452;2023-10-13T02:32:04;100440.44;;;23.86
13497;BMP180;6820;49.374;8.452;2023-10-13T02:36:06;100443.88;;;23.85
13497;BMP180;6820;49.374;8.452;2023-10-13T02:40:08;100441.25;;;23.83
13497;BMP180;6820;49.374;8.452;2023-10-13T02:44:10;100437.81;;;23.81
13497;BMP180;6820;49.374;8.452;2023-10-13T02:48:13;100430.03;;;23.78
13497;BMP180;6820;49.374;8.452;2023-10-13T02:52:18;100428.28;;;23.75
13497;BMP180;6820;49.374;8.452;2023-10-13T02:56:21;100423.94;;;23.73
13497;BMP180;6820;49.374;8.452;2023-10-13T03:00:23;100420.50;;;23.75
13497;BMP180;6820;49.374;8.452;2023-10-13T03:04:25;100417.88;;;23.74
13497;BMP180;6820;49.374;8.452;2023-10-13T03:08:27;100422.19;;;23.75
13497;BMP180;6820;49.374;8.452;2023-10-13T03:12:30;100413.66;;;23.82
13497;BMP180;6820;49.374;8.452;2023-10-13T03:16:35;100415.38;;;23.85
13497;BMP180;6820;49.374;8.452;2023-10-13T03:20:38;100409.44;;;23.94
13497;BMP180;6820;49.374;8.452;2023-10-13T03:24:44;100405.19;;;24.02
13497;BMP180;6820;49.374;8.452;2023-10-13T03:28:49;100401.78;;;24.09
13497;BMP180;6820;49.374;8.452;2023-10-13T03:32:53;100395.75;;;24.11
13497;BMP180;6820;49.374;8.452;2023-10-13T03:36:56;100396.66;;;24.14
13497;BMP180;6820;49.374;8.452;2023-10-13T03:40:58;100391.50;;;24.16
13497;BMP180;6820;49.374;8.452;2023-10-13T03:45:14;100382.03;;;24.18
13497;BMP180;6820;49.374;8.452;2023-10-13T03:49:18;100375.13;;;24.20
13497;BMP180;6820;49.374;8.452;2023-10-13T03:53:23;100369.91;;;24.17
13497;BMP180;6820;49.374;8.452;2023-10-13T03:57:27;100361.28;;;24.15
13497;BMP180;6820;49.374;8.452;2023-10-13T04:01:29;100359.56;;;24.15
13497;BMP180;6820;49.374;8.452;2023-10-13T04:05:36;100349.16;;;24.14
13497;BMP180;6820;49.374;8.452;2023-10-13T04:10:03;100349.19;;;24.13
13497;BMP180;6820;49.374;8.452;2023-10-13T04:14:40;100341.38;;;24.11
13497;BMP180;6820;49.374;8.452;2023-10-13T04:18:57;100338.75;;;24.05
13497;BMP180;6820;49.374;8.452;2023-10-13T04:23:01;100330.09;;;23.97
13497;BMP180;6820;49.374;8.452;2023-10-13T04:27:03;100337.81;;;23.91
13497;BMP180;6820;49.374;8.452;2023-10-13T04:31:15;100344.66;;;23.88
13497;BMP180;6820;49.374;8.452;2023-10-13T04:35:26;100342.06;;;23.84
13497;BMP180;6820;49.374;8.452;2023-10-13T04:39:35;100341.13;;;23.77
13497;BMP180;6820;49.374;8.452;2023-10-13T04:43:40;100351.44;;;23.71
13497;BMP180;6820;49.374;8.452;2023-10-13T04:47:58;100348.75;;;23.61
13497;BMP180;6820;49.374;8.452;2023-10-13T04:52:20;100339.22;;;23.51
13497;BMP180;6820;49.374;8.452;2023-10-13T04:56:40;100339.91;;;23.38
13497;BMP180;6820;49.374;8.452;2023-10-13T05:01:20;100336.31;;;23.26
13497;BMP180;6820;49.374;8.452;2023-10-13T05:05:28;100335.41;;;23.21
13497;BMP180;6820;49.374;8.452;2023-10-13T05:09:48;100331.09;;;23.20
13497;BMP180;6820;49.374;8.452;2023-10-13T05:14:09;100328.50;;;23.22
13497;BMP180;6820;49.374;8.452;2023-10-13T05:18:29;100321.53;;;23.12
13497;BMP180;6820;49.374;8.452;2023-10-13T05:22:49;100317.19;;;23.06
13497;BMP180;6820;49.374;8.452;2023-10-13T05:27:09;100313.72;;;23.06
13497;BMP180;6820;49.374;8.452;2023-10-13T05:31:29;100321.47;;;23.07
13497;BMP180;6820;49.374;8.452;2023-10-13T05:35:50;100324.09;;;23.09
13497;BMP180;6820;49.374;8.452;2023-10-13T05:40:10;100318.06;;;23.10
13497;BMP180;6820;49.374;8.452;2023-10-13T05:44:30;100316.28;;;23.04
13497;BMP180;6820;49.374;8.452;2023-10-13T05:48:36;100316.25;;;23.03
13497;BMP180;6820;49.374;8.452;2023-10-13T05:52:56;100312.78;;;22.98
13497;BMP180;6820;49.374;8.452;2023-10-13T05:56:57;100304.94;;;22.92
13497;BMP180;6820;49.374;8.452;2023-10-13T06:01:18;100297.16;;;22.88
13497;BMP180;6820;49.374;8.452;2023-10-13T06:05:38;100297.16;;;22.89
13497;BMP180;6820;49.374;8.452;2023-10-13T06:09:58;100292.94;;;22.97
13497;BMP180;6820;49.374;8.452;2023-10-13T06:14:19;100299.06;;;23.03
13497;BMP180;6820;49.374;8.452;2023-10-13T06:18:39;100309.44;;;23.09
13497;BMP180;6820;49.374;8.452;2023-10-13T06:22:59;100304.34;;;23.15
13497;BMP180;6820;49.374;8.452;2023-10-13T06:27:20;100305.22;;;23.17
13497;BMP180;6820;49.374;8.452;2023-10-13T06:31:40;100307.81;;;23.22
13497;BMP180;6820;49.374;8.452;2023-10-13T06:35:50;100309.59;;;23.25
13497;BMP180;6820;49.374;8.452;2023-10-13T06:39:53;100313.94;;;23.29
13497;BMP180;6820;49.374;8.452;2023-10-13T06:43:58;100317.44;;;23.34
13497;BMP180;6820;49.374;8.452;2023-10-13T06:48:03;100317.47;;;23.36
13497;BMP180;6820;49.374;8.452;2023-10-13T06:52:06;100326.94;;;23.35
13497;BMP180;6820;49.374;8.452;2023-10-13T06:56:08;100331.25;;;23.36
13497;BMP180;6820;49.374;8.452;2023-10-13T07:00:12;100334.72;;;23.40
13497;BMP180;6820;49.374;8.452;2023-10-13T07:04:35;100331.31;;;23.42
13497;BMP180;6820;49.374;8.452;2023-10-13T07:08:41;100325.34;;;23.49
13497;BMP180;6820;49.374;8.452;2023-10-13T07:12:42;100311.69;;;23.59
13497;BMP180;6820;49.374;8.452;2023-10-13T07:16:56;100318.66;;;23.67
13497;BMP180;6820;49.374;8.452;2023-10-13T07:21:01;100316.09;;;23.75
13497;BMP180;6820;49.374;8.452;2023-10-13T07:25:10;100311.84;;;23.85
13497;BMP180;6820;49.374;8.452;2023-10-13T07:29:20;100318.84;;;23.97
13497;BMP180;6820;49.374;8.452;2023-10-13T07:33:25;100323.22;;;24.05
13497;BMP180;6820;49.374;8.452;2023-10-13T07:37:27;100323.28;;;24.14
13497;BMP180;6820;49.374;8.452;2023-10-13T07:41:31;100328.50;;;24.20
13497;BMP180;6820;49.374;8.452;2023-10-13T07:45:38;100314.78;;;24.30
13497;BMP180;6820;49.374;8.452;2023-10-13T07:49:41;100307.03;;;24.36
13497;BMP180;6820;49.374;8.452;2023-10-13T07:53:43;100300.16;;;24.44
13497;BMP180;6820;49.374;8.452;2023-10-13T07:57:45;100291.56;;;24.52
13497;BMP180;6820;49.374;8.452;2023-10-13T08:01:56;100294.19;;;24.59
13497;BMP180;6820;49.374;8.452;2023-10-13T08:06:17;100296.81;;;24.70
13497;BMP180;6820;49.374;8.452;2023-10-13T08:10:22;100301.19;;;24.79
13497;BMP180;6820;49.374;8.452;2023-10-13T08:14:31;100298.63;;;24.91
13497;BMP180;6820;49.374;8.452;2023-10-13T08:18:40;100289.16;;;25.02
13497;BMP180;6820;49.374;8.452;2023-10-13T08:22:44;100284.84;;;25.11
13497;BMP180;6820;49.374;8.452;2023-10-13T08:26:49;100297.00;;;25.24
13497;BMP180;6820;49.374;8.452;2023-10-13T08:31:09;100290.91;;;25.37
13497;BMP180;6820;49.374;8.452;2023-10-13T08:35:25;100290.94;;;25.46
13497;BMP180;6820;49.374;8.452;2023-10-13T08:39:36;100290.97;;;25.58
13497;BMP180;6820;49.374;8.452;2023-10-13T08:44:01;100281.41;;;25.77
13497;BMP180;6820;49.374;8.452;2023-10-13T08:48:06;100287.44;;;26.09
13497;BMP180;6820;49.374;8.452;2023-10-13T08:52:15;100277.00;;;26.37
13497;BMP180;6820;49.374;8.452;2023-10-13T08:56:36;100269.97;;;26.57
13497;BMP180;6820;49.374;8.452;2023-10-13T09:00:48;100273.34;;;26.70
13497;BMP180;6820;49.374;8.452;2023-10-13T09:05:14;100271.66;;;26.74
13497;BMP180;6820;49.374;8.452;2023-10-13T09:13:54;100262.94;;;26.81
13497;BMP180;6820;49.374;8.452;2023-10-13T09:17:56;100261.13;;;26.92
13497;BMP180;6820;49.374;8.452;2023-10-13T09:22:25;100232.47;;;26.97
13497;BMP180;6820;49.374;8.452;2023-10-13T09:26:36;100239.31;;;27.15
13497;BMP180;6820;49.374;8.452;2023-10-13T09:30:49;100229.63;;;27.34
13497;BMP180;6820;49.374;8.452;2023-10-13T09:35:00;100227.78;;;27.45
13497;BMP180;6820;49.374;8.452;2023-10-13T09:39:03;100215.59;;;27.52
13497;BMP180;6820;49.374;8.452;2023-10-13T09:43:14;100211.19;;;27.59
13497;BMP180;6820;49.374;8.452;2023-10-13T09:47:22;100201.56;;;27.67
13497;BMP180;6820;49.374;8.452;2023-10-13T09:51:33;100199.69;;;27.77
13497;BMP180;6820;49.374;8.452;2023-10-13T09:55:36;100194.41;;;27.86
13497;BMP180;6820;49.374;8.452;2023-10-13T10:00:06;100193.47;;;27.92
13497;BMP180;6820;49.374;8.452;2023-10-13T10:04:18;100182.94;;;28.03
13497;BMP180;6820;49.374;8.452;2023-10-13T10:08:25;100188.03;;;28.13
13497;BMP180;6820;49.374;8.452;2023-10-13T10:17:04;100189.53;;;28.32
13497;BMP180;6820;49.374;8.452;2023-10-13T10:21:09;100184.13;;;28.45
13497;BMP180;6820;49.374;8.452;2023-10-13T10:25:16;100181.38;;;28.57
13497;BMP180;6820;49.374;8.452;2023-10-13T10:29:27;100175.16;;;28.67
13497;BMP180;6820;49.374;8.452;2023-10-13T10:33:29;100173.19;;;28.82
13497;BMP180;6820;49.374;8.452;2023-10-13T10:37:36;100166.75;;;29.02
13497;BMP180;6820;49.374;8.452;2023-10-13T10:41:38;100158.59;;;29.23
13497;BMP180;6820;49.374;8.452;2023-10-13T10:45:47;100155.56;;;29.45
13497;BMP180;6820;49.374;8.452;2023-10-13T10:49:51;100145.75;;;29.59
13497;BMP180;6820;49.374;8.452;2023-10-13T10:53:53;100140.41;;;29.66
13497;BMP180;6820;49.374;8.452;2023-10-13T10:57:59;100135.94;;;29.73
13497;BMP180;6820;49.374;8.452;2023-10-13T11:02:03;100122.75;;;29.77
13497;BMP180;6820;49.374;8.452;2023-10-13T11:06:04;100116.50;;;29.85
13497;BMP180;6820;49.374;8.452;2023-10-13T11:10:12;100105.03;;;29.92
13497;BMP180;6820;49.374;8.452;2023-10-13T11:14:28;100097.00;;;30.01
13497;BMP180;6820;49.374;8.452;2023-10-13T11:18:30;100095.13;;;30.07
13497;BMP180;6820;49.374;8.452;2023-10-13T11:22:48;100090.56;;;30.18
13497;BMP180;6820;49.374;8.452;2023-10-13T11:26:51;100087.47;;;30.39
13497;BMP180;6820;49.374;8.452;2023-10-13T11:30:58;100077.91;;;30.74
13497;BMP180;6820;49.374;8.452;2023-10-13T11:35:01;100088.47;;;31.04
13497;BMP180;6820;49.374;8.452;2023-10-13T11:39:02;100076.03;;;31.12
13497;BMP180;6820;49.374;8.452;2023-10-13T11:43:12;100065.75;;;31.06
13497;BMP180;6820;49.374;8.452;2023-10-13T11:47:17;100066.88;;;30.96
13497;BMP180;6820;49.374;8.452;2023-10-13T11:51:42;100057.31;;;30.94
13497;BMP180;6820;49.374;8.452;2023-10-13T11:55:47;100042.38;;;30.97
13497;BMP180;6820;49.374;8.452;2023-10-13T11:59:49;100042.19;;;31.06
13497;BMP180;6820;49.374;8.452;2023-10-13T12:03:58;100033.25;;;31.13
13497;BMP180;6820;49.374;8.452;2023-10-13T12:08:19;100025.16;;;31.22
13497;BMP180;6820;49.374;8.452;2023-10-13T12:12:26;100031.13;;;31.27
13497;BMP180;6820;49.374;8.452;2023-10-13T12:16:28;100002.97;;;31.34
13497;BMP180;6820;49.374;8.452;2023-10-13T12:20:36;100000.06;;;31.45
13497;BMP180;6820;49.374;8.452;2023-10-13T12:24:38;99993.28;;;31.66
13497;BMP180;6820;49.374;8.452;2023-10-13T12:28:44;99984.56;;;31.66
13497;BMP180;6820;49.374;8.452;2023-10-13T12:32:53;99976.41;;;31.76
13497;BMP180;6820;49.374;8.452;2023-10-13T12:37:10;99972.44;;;31.92
13497;BMP180;6820;49.374;8.452;2023-10-13T12:41:32;99968.66;;;32.00
13497;BMP180;6820;49.374;8.452;2023-10-13T12:45:52;99969.28;;;32.08
13497;BMP180;6820;49.374;8.452;2023-10-13T12:50:14;99965.47;;;32.18
13497;BMP180;6820;49.374;8.452;2023-10-13T12:54:27;99968.03;;;32.19
13497;BMP180;6820;49.374;8.452;2023-10-13T12:58:36;99963.56;;;32.23
13497;BMP180;6820;49.374;8.452;2023-10-13T13:02:38;99953.53;;;32.35
13497;BMP180;6820;49.374;8.452;2023-10-13T13:06:40;99941.72;;;32.48
13497;BMP180;6820;49.374;8.452;2023-10-13T13:10:42;99955.81;;;32.71
13497;BMP180;6820;49.374;8.452;2023-10-13T13:14:47;99939.88;;;33.00
13497;BMP180;6820;49.374;8.452;2023-10-13T13:18:52;99923.59;;;33.14
13497;BMP180;6820;49.374;8.452;2023-10-13T13:22:57;99919.94;;;33.18
13497;BMP180;6820;49.374;8.452;2023-10-13T13:27:04;99912.34;;;33.11
13497;BMP180;6820;49.374;8.452;2023-10-13T13:31:06;99906.53;;;33.03
13497;BMP180;6820;49.374;8.452;2023-10-13T13:35:09;99901.66;;;32.93
13497;BMP180;6820;49.374;8.452;2023-10-13T13:39:15;99890.00;;;33.00
13497;BMP180;6820;49.374;8.452;2023-10-13T13:43:22;99886.22;;;33.08
13497;BMP180;6820;49.374;8.452;2023-10-13T13:47:54;99886.47;;;33.23
13497;BMP180;6820;49.374;8.452;2023-10-13T13:51:56;99871.19;;;33.34
13497;BMP180;6820;49.374;8.452;2023-10-13T13:56:02;99858.41;;;33.48
13497;BMP180;6820;49.374;8.452;2023-10-13T14:00:04;99848.06;;;33.65
13497;BMP180;6820;49.374;8.452;2023-10-13T14:04:10;99860.94;;;33.49
13497;BMP180;6820;49.374;8.452;2023-10-13T14:08:12;99851.81;;;33.37
13497;BMP180;6820;49.374;8.452;2023-10-13T14:12:15;99849.88;;;33.42
13497;BMP180;6820;49.374;8.452;2023-10-13T14:16:43;99837.28;;;33.49
13497;BMP180;6820;49.374;8.452;2023-10-13T14:20:49;99826.78;;;33.71
13497;BMP180;6820;49.374;8.452;2023-10-13T14:24:51;99822.16;;;33.77
13497;BMP180;6820;49.374;8.452;2023-10-13T14:28:56;99806.44;;;33.97
13497;BMP180;6820;49.374;8.452;2023-10-13T14:33:07;99811.84;;;34.33
13497;BMP180;6820;49.374;8.452;2023-10-13T14:37:12;99807.19;;;34.39
13497;BMP180;6820;49.374;8.452;2023-10-13T14:41:27;99809.69;;;34.42
13497;BMP180;6820;49.374;8.452;2023-10-13T14:45:29;99792.44;;;34.36
13497;BMP180;6820;49.374;8.452;2023-10-13T14:49:31;99785.19;;;34.40
13497;BMP180;6820;49.374;8.452;2023-10-13T14:53:33;99780.53;;;34.47
13497;BMP180;6820;49.374;8.452;2023-10-13T14:57:35;99772.41;;;34.51
13497;BMP180;6820;49.374;8.452;2023-10-13T15:01:39;99765.47;;;34.50
13497;BMP180;6820;49.374;8.452;2023-10-13T15:05:40;99756.19;;;34.42
13497;BMP180;6820;49.374;8.452;2023-10-13T15:09:44;99746.16;;;34.32
13497;BMP180;6820;49.374;8.452;2023-10-13T15:13:46;99740.53;;;34.19
13497;BMP180;6820;49.374;8.452;2023-10-13T15:17:52;99731.72;;;34.01
13497;BMP180;6820;49.374;8.452;2023-10-13T15:21:55;99730.00;;;33.80
13497;BMP180;6820;49.374;8.452;2023-10-13T15:25:56;99722.50;;;33.50
13497;BMP180;6820;49.374;8.452;2023-10-13T15:30:08;99718.34;;;33.25
13497;BMP180;6820;49.374;8.452;2023-10-13T15:34:21;99715.78;;;33.01
13497;BMP180;6820;49.374;8.452;2023-10-13T15:38:24;99719.00;;;32.86
13497;BMP180;6820;49.374;8.452;2023-10-13T15:42:28;99717.06;;;32.68
13497;BMP180;6820;49.374;8.452;2023-10-13T15:46:30;99714.19;;;32.51
13497;BMP180;6820;49.374;8.452;2023-10-13T15:50:38;99696.56;;;32.32
13497;BMP180;6820;49.374;8.452;2023-10-13T15:54:41;99699.94;;;32.12
13497;BMP180;6820;49.374;8.452;2023-10-13T15:58:44;99699.75;;;31.93
13497;BMP180;6820;49.374;8.452;2023-10-13T16:02:56;99689.06;;;31.75
13497;BMP180;6820;49.374;8.452;2023-10-13T16:06:59;99687.84;;;31.59
13497;BMP180;6820;49.374;8.452;2023-10-13T16:11:06;99677.00;;;31.44
13497;BMP180;6820;49.374;8.452;2023-10-13T16:15:14;99696.63;;;31.33
13497;BMP180;6820;49.374;8.452;2023-10-13T16:19:17;99685.72;;;31.18
13497;BMP180;6820;49.374;8.452;2023-10-13T16:23:23;99687.03;;;31.05
13497;BMP180;6820;49.374;8.452;2023-10-13T16:27:25;99684.84;;;30.92
13497;BMP180;6820;49.374;8.452;2023-10-13T16:31:27;99680.00;;;30.80
13497;BMP180;6820;49.374;8.452;2023-10-13T16:35:29;99692.50;;;30.70
13497;BMP180;6820;49.374;8.452;2023-10-13T16:39:35;99681.53;;;30.58
13497;BMP180;6820;49.374;8.452;2023-10-13T16:43:41;99677.53;;;30.47
13497;BMP180;6820;49.374;8.452;2023-10-13T16:47:43;99670.78;;;30.38
13497;BMP180;6820;49.374;8.452;2023-10-13T16:51:45;99674.44;;;30.33
13497;BMP180;6820;49.374;8.452;2023-10-13T16:55:47;99669.47;;;30.24
13497;BMP180;6820;49.374;8.452;2023-10-13T16:59:48;99671.34;;;30.19
13497;BMP180;6820;49.374;8.452;2023-10-13T17:03:50;99674.97;;;30.14
13497;BMP180;6820;49.374;8.452;2023-10-13T17:07:53;99671.59;;;30.10
13497;BMP180;6820;49.374;8.452;2023-10-13T17:11:55;99664.72;;;30.06
13497;BMP180;6820;49.374;8.452;2023-10-13T17:15:56;99657.78;;;30.05
13497;BMP180;6820;49.374;8.452;2023-10-13T17:20:01;99662.94;;;30.08
13497;BMP180;6820;49.374;8.452;2023-10-13T17:24:03;99659.44;;;30.09
13497;BMP180;6820;49.374;8.452;2023-10-13T17:28:06;99652.34;;;30.13
13497;BMP180;6820;49.374;8.452;2023-10-13T17:32:16;99658.34;;;30.18
13497;BMP180;6820;49.374;8.452;2023-10-13T17:36:18;99653.91;;;30.20
13497;BMP180;6820;49.374;8.452;2023-10-13T17:40:20;99657.41;;;30.20
13497;BMP180;6820;49.374;8.452;2023-10-13T17:44:22;99652.19;;;30.20
13497;BMP180;6820;49.374;8.452;2023-10-13T17:48:24;99650.53;;;30.16
13497;BMP180;6820;49.374;8.452;2023-10-13T17:52:26;99647.06;;;30.14
13497;BMP180;6820;49.374;8.452;2023-10-13T17:56:28;99655.81;;;30.13
13497;BMP180;6820;49.374;8.452;2023-10-13T18:00:32;99648.09;;;30.09
13497;BMP180;6820;49.374;8.452;2023-10-13T18:04:34;99633.34;;;30.06
13497;BMP180;6820;49.374;8.452;2023-10-13T18:08:37;99631.69;;;30.04
13497;BMP180;6820;49.374;8.452;2023-10-13T18:12:41;99628.31;;;30.01
13497;BMP180;6820;49.374;8.452;2023-10-13T18:16:43;99621.47;;;29.97
13497;BMP180;6820;49.374;8.452;2023-10-13T18:21:00;99623.38;;;29.92
13497;BMP180;6820;49.374;8.452;2023-10-13T18:25:02;99613.84;;;29.89
13497;BMP180;6820;49.374;8.452;2023-10-13T18:29:32;99611.31;;;29.86
13497;BMP180;6820;49.374;8.452;2023-10-13T18:33:48;99621.72;;;29.88
13497;BMP180;6820;49.374;8.452;2023-10-13T18:37:53;99620.88;;;29.87
13497;BMP180;6820;49.374;8.452;2023-10-13T18:41:55;99609.66;;;29.84
13497;BMP180;6820;49.374;8.452;2023-10-13T18:46:00;99627.97;;;29.82
13497;BMP180;6820;49.374;8.452;2023-10-13T18:50:03;99617.59;;;29.79
13497;BMP180;6820;49.374;8.452;2023-10-13T18:54:06;99615.06;;;29.78
13497;BMP180;6820;49.374;8.452;2023-10-13T18:58:09;99612.44;;;29.78
13497;BMP180;6820;49.374;8.452;2023-10-13T19:02:10;99613.38;;;29.75
13497;BMP180;6820;49.374;8.452;2023-10-13T19:06:15;99602.97;;;29.74
13497;BMP180;6820;49.374;8.452;2023-10-13T19:10:17;99608.34;;;29.70
13497;BMP180;6820;49.374;8.452;2023-10-13T19:14:18;99613.56;;;29.70
13497;BMP180;6820;49.374;8.452;2023-10-13T19:18:20;99611.81;;;29.69
13497;BMP180;6820;49.374;8.452;2023-10-13T19:22:22;99611.09;;;29.64
13497;BMP180;6820;49.374;8.452;2023-10-13T19:26:27;99604.22;;;29.60
13497;BMP180;6820;49.374;8.452;2023-10-13T19:30:28;99606.06;;;29.56
13497;BMP180;6820;49.374;8.452;2023-10-13T19:34:34;99602.63;;;29.54
13497;BMP180;6820;49.374;8.452;2023-10-13T19:38:36;99601.81;;;29.52
13497;BMP180;6820;49.374;8.452;2023-10-13T19:42:38;99605.31;;;29.51
13497;BMP180;6820;49.374;8.452;2023-10-13T19:46:41;99605.34;;;29.50
13497;BMP180;6820;49.374;8.452;2023-10-13T19:50:43;99601.88;;;29.49
13497;BMP180;6820;49.374;8.452;2023-10-13T19:54:47;99593.16;;;29.50
13497;BMP180;6820;49.374;8.452;2023-10-13T19:58:50;99599.19;;;29.52
13497;BMP180;6820;49.374;8.452;2023-10-13T20:02:55;99592.13;;;29.56
13497;BMP180;6820;49.374;8.452;2023-10-13T20:06:56;99600.75;;;29.59
13497;BMP180;6820;49.374;8.452;2023-10-13T20:10:58;99605.00;;;29.63
13497;BMP180;6820;49.374;8.452;2023-10-13T20:14:59;99610.16;;;29.66
13497;BMP180;6820;49.374;8.452;2023-10-13T20:19:01;99604.03;;;29.67
13497;BMP180;6820;49.374;8.452;2023-10-13T20:23:03;99602.28;;;29.68
13497;BMP180;6820;49.374;8.452;2023-10-13T20:27:05;99617.97;;;29.68
13497;BMP180;6820;49.374;8.452;2023-10-13T20:31:07;99598.00;;;29.65
13497;BMP180;6820;49.374;8.452;2023-10-13T20:35:11;99608.47;;;29.64
13497;BMP180;6820;49.374;8.452;2023-10-13T20:39:13;99610.22;;;29.63
13497;BMP180;6820;49.374;8.452;2023-10-13T20:43:36;99601.63;;;29.58
13497;BMP180;6820;49.374;8.452;2023-10-13T20:47:41;99595.66;;;29.53
13497;BMP180;6820;49.374;8.452;2023-10-13T20:51:43;99600.09;;;29.51
13497;BMP180;6820;49.374;8.452;2023-10-13T20:55:44;99616.63;;;29.52
13497;BMP180;6820;49.374;8.452;2023-10-13T20:59:47;99614.03;;;29.50
13497;BMP180;6820;49.374;8.452;2023-10-13T21:03:50;99614.97;;;29.48
13497;BMP180;6820;49.374;8.452;2023-10-13T21:07:54;99628.16;;;29.43
13497;BMP180;6820;49.374;8.452;2023-10-13T21:11:56;99623.91;;;29.40
13497;BMP180;6820;49.374;8.452;2023-10-13T21:15:59;99624.97;;;29.33
13497;BMP180;6820;49.374;8.452;2023-10-13T21:20:01;99625.94;;;29.29
13497;BMP180;6820;49.374;8.452;2023-10-13T21:24:06;99632.09;;;29.26
13497;BMP180;6820;49.374;8.452;2023-10-13T21:28:11;99627.78;;;29.25
13497;BMP180;6820;49.374;8.452;2023-10-13T21:32:13;99624.25;;;29.26
13497;BMP180;6820;49.374;8.452;2023-10-13T21:36:15;99623.38;;;29.27
13497;BMP180;6820;49.374;8.452;2023-10-13T21:40:20;99626.84;;;29.28
13497;BMP180;6820;49.374;8.452;2023-10-13T21:44:21;99624.19;;;29.29
13497;BMP180;6820;49.374;8.452;2023-10-13T21:48:30;99632.88;;;29.30
13497;BMP180;6820;49.374;8.452;2023-10-13T21:52:35;99644.13;;;29.32
13497;BMP180;6820;49.374;8.452;2023-10-13T21:56:37;99639.78;;;29.32
13497;BMP180;6820;49.374;8.452;2023-10-13T22:00:40;99646.72;;;29.32
13497;BMP180;6820;49.374;8.452;2023-10-13T22:04:57;99650.28;;;29.29
13497;BMP180;6820;49.374;8.452;2023-10-13T22:09:00;99646.81;;;29.29
13497;BMP180;6820;49.374;8.452;2023-10-13T22:13:06;99649.44;;;29.29
13497;BMP180;6820;49.374;8.452;2023-10-13T22:17:08;99652.88;;;29.29
13497;BMP180;6820;49.374;8.452;2023-10-13T22:21:13;99652.94;;;29.28
13497;BMP180;6820;49.374;8.452;2023-10-13T22:25:16;99646.91;;;29.26
13497;BMP180;6820;49.374;8.452;2023-10-13T22:29:17;99648.56;;;29.28
13497;BMP180;6820;49.374;8.452;2023-10-13T22:33:20;99645.97;;;29.28
13497;BMP180;6820;49.374;8.452;2023-10-13T22:37:22;99655.56;;;29.28
13497;BMP180;6820;49.374;8.452;2023-10-13T22:41:26;99648.56;;;29.28
13497;BMP180;6820;49.374;8.452;2023-10-13T22:45:29;99647.72;;;29.28
13497;BMP180;6820;49.374;8.452;2023-10-13T22:49:32;99632.91;;;29.28
13497;BMP180;6820;49.374;8.452;2023-10-13T22:53:34;99617.31;;;29.27
13497;BMP180;6820;49.374;8.452;2023-10-13T22:57:36;99619.91;;;29.27
13497;BMP180;6820;49.374;8.452;2023-10-13T23:01:39;99605.19;;;29.24
13497;BMP180;6820;49.374;8.452;2023-10-13T23:05:44;99611.34;;;29.22
13497;BMP180;6820;49.374;8.452;2023-10-13T23:09:52;99607.06;;;29.19
13497;BMP180;6820;49.374;8.452;2023-10-13T23:13:54;99619.19;;;29.20
13497;BMP180;6820;49.374;8.452;2023-10-13T23:17:56;99612.22;;;29.21
13497;BMP180;6820;49.374;8.452;2023-10-13T23:21:58;99615.66;;;29.23
13497;BMP180;6820;49.374;8.452;2023-10-13T23:26:00;99607.84;;;29.21
13497;BMP180;6820;49.374;8.452;2023-10-13T23:30:03;99608.75;;;29.20
13497;BMP180;6820;49.374;8.452;2023-10-13T23:34:04;99601.00;;;29.19
13497;BMP180;6820;49.374;8.452;2023-10-13T23:38:08;99609.66;;;29.19
13497;BMP180;6820;49.374;8.452;2023-10-13T23:42:19;99607.94;;;29.18
13497;BMP180;6820;49.374;8.452;2023-10-13T23:46:25;99607.94;;;29.18
13497;BMP180;6820;49.374;8.452;2023-10-13T23:50:28;99613.13;;;29.20
13497;BMP180;6820;49.374;8.452;2023-10-13T23:54:29;99601.75;;;29.22
13497;BMP180;6820;49.374;8.452;2023-10-13T23:58:45;99597.38;;;29.23
